Time;durP1;ratioP1;P1;durP2;ratioP2;P2;SDS_P1;SDS_P2;PMS_P1;PMS_P2;Temp;Humidity;BMP_temperature;BMP_pressure;BME280_temperature;BME280_humidity;BME280_pressure;Samples;Min_cycle;Max_cycle;Signal;HPM_P1;HPM_P2
2022/08/15 00:02:12;;;;;;;12.73;11.43;;;26.40;57.30;;;;;;5011268;51;21064;-29
2022/08/15 00:07:13;;;;;;;14.80;11.93;;;26.30;57.20;;;;;;5030795;51;20983;-31
2022/08/15 00:12:14;;;;;;;13.45;12.05;;;26.30;57.10;;;;;;5044684;51;20974;-34
2022/08/15 00:17:15;;;;;;;12.50;11.30;;;26.40;57.20;;;;;;5011495;51;21556;-36
2022/08/15 00:22:17;;;;;;;15.43;12.40;;;26.40;57.10;;;;;;5059008;51;21579;-31
2022/08/15 00:27:20;;;;;;;12.82;11.40;;;26.30;56.90;;;;;;5014207;51;21491;-28
2022/08/15 00:32:26;;;;;;;12.77;10.93;;;26.30;57.00;;;;;;5042650;51;21021;-27
2022/08/15 00:37:27;;;;;;;14.57;10.90;;;26.30;56.90;;;;;;5017857;51;21472;-28
2022/08/15 00:42:28;;;;;;;12.82;10.95;;;26.30;56.90;;;;;;5088478;51;21014;-28
2022/08/15 00:47:29;;;;;;;13.32;11.15;;;26.30;56.80;;;;;;5007409;55;20978;-28
2022/08/15 00:52:32;;;;;;;12.57;11.27;;;26.30;56.80;;;;;;5037025;51;21758;-27
2022/08/15 00:57:37;;;;;;;13.93;12.00;;;26.30;56.60;;;;;;5056002;51;21320;-28
2022/08/15 01:02:38;;;;;;;12.23;10.93;;;26.30;56.60;;;;;;5032062;51;20982;-28
2022/08/15 01:07:41;;;;;;;13.00;11.70;;;26.30;56.70;;;;;;5106050;51;21948;-38
2022/08/15 01:12:42;;;;;;;12.93;11.63;;;26.30;56.60;;;;;;5053990;51;21448;-36
2022/08/15 01:17:44;;;;;;;13.05;11.07;;;26.30;56.60;;;;;;5013223;51;21056;-28
2022/08/15 01:23:28;;;;;;;12.75;11.48;;;26.30;56.50;;;;;;5033430;51;21484;-28
2022/08/15 01:28:41;;;;;;;12.93;11.15;;;26.30;56.40;;;;;;5025269;51;21049;-35
2022/08/15 01:33:57;;;;;;;12.30;11.20;;;26.30;56.50;;;;;;5020261;51;21526;-27
2022/08/15 01:39:19;;;;;;;12.25;11.15;;;26.30;56.30;;;;;;5061674;51;20986;-27
2022/08/15 01:44:35;;;;;;;12.07;10.88;;;26.30;56.30;;;;;;5062705;51;21053;-35
2022/08/15 01:49:41;;;;;;;12.77;11.48;;;26.30;56.30;;;;;;5031740;51;22206;-42
2022/08/15 01:54:42;;;;;;;16.62;11.80;;;26.30;56.20;;;;;;5039796;51;21073;-37
2022/08/15 01:59:43;;;;;;;12.18;10.98;;;26.20;56.10;;;;;;5018137;51;20998;-33
2022/08/15 02:04:43;;;;;;;12.02;10.73;;;26.20;56.10;;;;;;5017268;51;21382;-29
2022/08/15 02:09:46;;;;;;;12.70;11.50;;;26.30;56.10;;;;;;5049121;51;20974;-29
2022/08/15 02:14:47;;;;;;;13.02;11.50;;;26.30;56.00;;;;;;5099971;51;21476;-28
2022/08/15 02:19:49;;;;;;;11.75;10.48;;;26.30;56.00;;;;;;5034484;51;21018;-35
2022/08/15 02:24:50;;;;;;;12.75;10.88;;;26.30;55.90;;;;;;5022922;51;21009;-38
2022/08/15 02:29:51;;;;;;;11.75;10.57;;;26.30;55.90;;;;;;5015535;51;21436;-27
2022/08/15 02:34:52;;;;;;;11.65;10.52;;;26.30;55.90;;;;;;5007790;55;20966;-28
2022/08/15 02:39:53;;;;;;;12.43;10.85;;;26.30;55.90;;;;;;5007880;55;20986;-37
2022/08/15 02:44:55;;;;;;;12.35;11.15;;;26.30;55.80;;;;;;5013382;51;21057;-27
2022/08/15 02:49:57;;;;;;;13.85;11.20;;;26.30;56.50;;;;;;5042693;51;21559;-37
2022/08/15 02:55:00;;;;;;;12.02;10.75;;;26.30;55.80;;;;;;5008220;55;21506;-30
2022/08/15 03:00:03;;;;;;;12.25;11.05;;;26.20;55.70;;;;;;5007837;55;22024;-35
2022/08/15 03:05:06;;;;;;;13.30;11.43;;;26.20;55.60;;;;;;5022496;51;20974;-27
2022/08/15 03:10:07;;;;;;;13.57;11.20;;;26.20;55.50;;;;;;5010635;51;21499;-30
2022/08/15 03:15:09;;;;;;;12.18;10.98;;;26.20;55.50;;;;;;5056300;51;21002;-30
2022/08/15 03:20:11;;;;;;;11.35;10.25;;;26.20;55.50;;;;;;5057950;51;21530;-38
2022/08/15 03:25:14;;;;;;;11.85;10.70;;;26.20;55.30;;;;;;5028274;51;21010;-31
2022/08/15 03:30:16;;;;;;;11.27;10.27;;;26.20;55.30;;;;;;5008046;55;21018;-38
2022/08/15 03:35:20;;;;;;;12.63;10.95;;;26.20;55.40;;;;;;5060291;51;21047;-33
2022/08/15 03:40:22;;;;;;;12.60;11.35;;;26.20;55.10;;;;;;5011391;51;21460;-36
2022/08/15 03:45:24;;;;;;;12.88;10.88;;;26.20;55.20;;;;;;5006806;55;21555;-30
2022/08/15 03:50:25;;;;;;;11.77;10.48;;;26.20;55.10;;;;;;5072077;51;20990;-36
2022/08/15 03:55:28;;;;;;;12.43;11.23;;;26.10;55.00;;;;;;5008161;55;21069;-35
2022/08/15 04:00:33;;;;;;;11.23;10.15;;;26.20;54.80;;;;;;5008224;55;21116;-34
2022/08/15 04:05:35;;;;;;;12.35;11.05;;;26.10;54.60;;;;;;5018041;51;21040;-27
2022/08/15 04:10:37;;;;;;;12.18;10.98;;;26.20;54.70;;;;;;5016462;51;21571;-27
2022/08/15 04:15:41;;;;;;;11.85;10.60;;;26.20;54.50;;;;;;5026623;51;20998;-29
2022/08/15 04:20:42;;;;;;;12.55;11.25;;;26.10;54.50;;;;;;5026105;51;21571;-38
2022/08/15 04:25:43;;;;;;;12.10;10.80;;;26.10;54.40;;;;;;5026437;51;21575;-29
2022/08/15 04:30:49;;;;;;;13.50;10.95;;;26.20;54.30;;;;;;5025087;51;21483;-28
2022/08/15 04:35:59;;;;;;;11.27;10.17;;;26.10;54.20;;;;;;5018007;51;21046;-29
2022/08/15 04:41:01;;;;;;;12.48;11.23;;;26.10;54.10;;;;;;5021450;51;20990;-41
2022/08/15 04:46:04;;;;;;;13.13;11.12;;;26.10;54.00;;;;;;5045973;51;22076;-30
2022/08/15 04:51:05;;;;;;;12.27;10.93;;;26.10;54.00;;;;;;5068375;51;21155;-27
2022/08/15 04:56:07;;;;;;;13.02;11.00;;;26.10;53.80;;;;;;5052866;51;21022;-30
2022/08/15 05:01:11;;;;;;;13.23;11.93;;;26.10;53.90;;;;;;5019560;51;20974;-28
2022/08/15 05:06:12;;;;;;;17.45;12.13;;;26.10;53.70;;;;;;5017380;51;21041;-34
2022/08/15 05:11:17;;;;;;;14.00;12.43;;;26.10;53.80;;;;;;5075377;51;21471;-30
2022/08/15 05:16:18;;;;;;;15.93;12.95;;;26.10;53.80;;;;;;5022255;51;21547;-33
2022/08/15 05:21:19;;;;;;;14.95;13.00;;;26.10;53.90;;;;;;5011045;51;21014;-35
2022/08/15 05:26:20;;;;;;;15.10;13.55;;;26.10;53.80;;;;;;5018255;51;21024;-31
2022/08/15 05:31:20;;;;;;;16.35;14.07;;;26.10;53.90;;;;;;5014699;51;21041;-30
2022/08/15 05:36:22;;;;;;;14.75;13.25;;;26.10;53.90;;;;;;5015741;51;21014;-27
2022/08/15 05:41:50;;;;;;;14.30;12.85;;;26.10;54.00;;;;;;5042643;51;21479;-27
2022/08/15 05:47:12;;;;;;;15.40;13.73;;;26.00;54.00;;;;;;5052745;51;21917;-32
2022/08/15 05:55:34;;;;;;;15.00;13.50;;;26.10;54.10;;;;;;5021893;51;20977;-28
2022/08/15 06:00:38;;;;;;;19.25;14.32;;;26.10;54.20;;;;;;5032777;51;21541;-30
2022/08/15 06:05:44;;;;;;;18.55;14.07;;;26.10;54.30;;;;;;5025830;51;21014;-30
2022/08/15 06:11:02;;;;;;;16.08;14.18;;;26.10;54.40;;;;;;5009076;51;20978;-31
2022/08/15 06:16:53;;;;;;;18.12;14.68;;;26.10;54.50;;;;;;5183798;51;21504;-28
2022/08/15 06:22:17;;;;;;;22.90;15.88;;;26.10;54.60;;;;;;5073302;51;21042;-27
2022/08/15 06:35:40;;;;;;;15.50;13.82;;;26.10;54.70;;;;;;5045556;51;21052;-29
2022/08/15 06:42:34;;;;;;;17.12;14.10;;;26.10;54.70;;;;;;5016323;51;21983;-30
2022/08/15 06:47:35;;;;;;;15.93;14.38;;;26.10;55.00;;;;;;5008743;51;20965;-27
2022/08/15 06:52:37;;;;;;;17.73;15.23;;;26.10;55.10;;;;;;5037926;51;20986;-32
2022/08/15 06:58:00;;;;;;;34.47;21.83;;;26.10;55.10;;;;;;5039179;51;21029;-29
2022/08/15 07:03:47;;;;;;;33.13;24.67;;;26.10;56.30;;;;;;5007046;55;21044;-30
2022/08/15 07:09:01;;;;;;;32.83;25.15;;;26.00;56.60;;;;;;5018061;51;21380;-26
2022/08/15 07:15:12;;;;;;;36.50;28.25;;;26.00;56.80;;;;;;5021975;51;21029;-28
2022/08/15 07:20:13;;;;;;;37.65;29.20;;;26.00;56.50;;;;;;5008330;55;21053;-32
2022/08/15 07:25:18;;;;;;;39.55;30.98;;;26.10;56.40;;;;;;5008438;51;21071;-34
2022/08/15 07:30:26;;;;;;;199.80;150.38;;;26.10;56.50;;;;;;5009358;51;21032;-37
2022/08/15 07:35:34;;;;;;;167.82;126.43;;;26.10;56.40;;;;;;5035432;51;21100;-32
2022/08/15 07:40:39;;;;;;;134.70;94.03;;;26.10;56.20;;;;;;5014917;51;21041;-35
2022/08/15 07:45:41;;;;;;;93.95;64.85;;;26.10;56.10;;;;;;5028072;51;21315;-31
2022/08/15 07:50:44;;;;;;;106.32;70.70;;;26.20;56.10;;;;;;4942952;52;32645;-37
2022/08/15 07:56:16;;;;;;;83.50;56.53;;;26.20;56.10;;;;;;4976842;53;21028;-29
2022/08/15 08:01:28;;;;;;;80.93;55.30;;;26.20;56.20;;;;;;4971858;56;21123;-35
2022/08/15 08:06:46;;;;;;;90.15;60.63;;;26.20;56.30;;;;;;4989986;52;21009;-27
2022/08/15 08:11:54;;;;;;;121.35;67.95;;;26.30;56.50;;;;;;4980321;52;21043;-29
2022/08/15 08:17:05;;;;;;;147.23;75.93;;;26.30;56.40;;;;;;4981832;52;21506;-29
2022/08/15 08:22:38;;;;;;;115.70;68.07;;;26.30;56.60;;;;;;5007691;52;21068;-30
2022/08/15 08:28:09;;;;;;;90.15;58.17;;;26.40;56.80;;;;;;4973784;52;21042;-29
2022/08/15 08:37:41;;;;;;;82.20;54.30;;;26.40;57.00;;;;;;4947153;52;20992;-32
2022/08/15 08:43:00;;;;;;;71.30;51.15;;;26.50;57.30;;;;;;4909084;56;21465;-28
2022/08/15 08:48:35;;;;;;;66.05;51.20;;;26.50;57.30;;;;;;4928862;52;20988;-33
2022/08/15 08:54:01;;;;;;;64.03;49.50;;;26.50;57.20;;;;;;4933153;52;21078;-29
2022/08/15 09:00:36;;;;;;;59.73;46.90;;;26.50;57.00;;;;;;4934701;52;21361;-27
2022/08/15 09:05:41;;;;;;;;;;;26.50;56.90;;;;;;4933692;52;20991;-30
2022/08/15 09:10:47;;;;;;;57.35;44.15;;;26.60;56.80;;;;;;4905949;53;20395;-26
2022/08/15 09:15:53;;;;;;;51.22;42.17;;;26.60;56.80;;;;;;5019669;52;21070;-28
2022/08/15 09:20:56;;;;;;;55.33;42.90;;;26.60;56.70;;;;;;4916600;52;21823;-33
2022/08/15 09:26:27;;;;;;;48.87;37.95;;;26.60;56.60;;;;;;4908112;56;21071;-31
2022/08/15 09:31:34;;;;;;;46.10;37.70;;;26.70;56.70;;;;;;4914475;52;21442;-28
2022/08/15 09:39:24;;;;;;;47.95;37.42;;;26.70;56.80;;;;;;4927357;52;21140;-32
2022/08/15 09:44:55;;;;;;;45.90;38.97;;;26.70;56.80;;;;;;4908571;52;21043;-27
2022/08/15 09:50:46;;;;;;;43.15;37.22;;;26.70;56.80;;;;;;4942949;52;20956;-29
2022/08/15 09:55:49;;;;;;;41.45;35.92;;;26.70;56.70;;;;;;4951140;52;21504;-33
2022/08/15 10:03:49;;;;;;;41.70;36.63;;;26.70;56.60;;;;;;4910208;52;21556;-33
2022/08/15 10:09:37;;;;;;;42.30;35.63;;;26.70;56.50;;;;;;4927955;52;21015;-28
2022/08/15 10:15:01;;;;;;;44.53;35.72;;;26.80;56.20;;;;;;4909699;56;21101;-36
2022/08/15 10:21:55;;;;;;;40.30;35.33;;;26.80;56.30;;;;;;4912509;52;21465;-29
2022/08/15 10:27:20;;;;;;;40.10;33.92;;;26.80;56.10;;;;;;4914282;52;21476;-30
2022/08/15 10:32:41;;;;;;;40.47;33.13;;;26.80;56.00;;;;;;4954237;52;21976;-33
2022/08/15 10:38:02;;;;;;;38.03;32.40;;;26.80;55.70;;;;;;4914393;52;21433;-33
2022/08/15 10:45:14;;;;;;;40.58;31.52;;;26.80;55.90;;;;;;4913317;52;20971;-30
2022/08/15 10:51:16;;;;;;;38.50;29.58;;;26.80;55.90;;;;;;4915300;52;21512;-33
2022/08/15 10:56:22;;;;;;;36.47;27.73;;;26.90;54.60;;;;;;4922874;52;20951;-27
2022/08/15 11:01:31;;;;;;;35.85;27.30;;;26.90;54.40;;;;;;4937214;52;21520;-27
2022/08/15 11:06:41;;;;;;;34.55;27.45;;;26.90;54.00;;;;;;4941063;52;21069;-33
2022/08/15 11:12:00;;;;;;;33.30;28.08;;;26.90;52.60;;;;;;4953621;52;21872;-30
2022/08/15 11:17:03;;;;;;;36.13;27.87;;;27.00;51.90;;;;;;4924622;52;21442;-34
2022/08/15 11:22:07;;;;;;;34.53;26.90;;;27.00;52.10;;;;;;4937562;52;21470;-30
2022/08/15 11:27:19;;;;;;;35.03;27.73;;;26.90;52.20;;;;;;4921322;52;21067;-29
2022/08/15 11:32:34;;;;;;;35.88;27.70;;;26.90;52.20;;;;;;4966582;52;21469;-28
2022/08/15 11:37:40;;;;;;;33.97;27.58;;;26.90;52.10;;;;;;4918831;52;21094;-29
2022/08/15 11:42:42;;;;;;;36.95;29.27;;;26.90;52.20;;;;;;4951111;52;20963;-29
2022/08/15 11:47:47;;;;;;;37.85;29.27;;;26.90;52.20;;;;;;4930256;52;21486;-27
2022/08/15 11:52:54;;;;;;;37.30;28.92;;;26.90;52.00;;;;;;4912836;52;21533;-27
2022/08/15 11:58:33;;;;;;;38.03;31.65;;;26.90;51.80;;;;;;4910711;56;22146;-30
2022/08/15 12:03:36;;;;;;;45.47;32.20;;;26.90;51.90;;;;;;4946135;52;20983;-28
2022/08/15 12:08:37;;;;;;;38.75;31.80;;;27.00;52.10;;;;;;4917820;52;21061;-26
2022/08/15 12:13:38;;;;;;;50.88;37.00;;;26.90;52.00;;;;;;4916313;52;21378;-33
2022/08/15 12:18:39;;;;;;;42.42;34.67;;;26.90;50.40;;;;;;4929423;52;20984;-30
2022/08/15 12:23:47;;;;;;;49.13;36.05;;;27.00;50.10;;;;;;4909335;53;21062;-33
2022/08/15 12:28:48;;;;;;;45.20;35.28;;;27.10;48.40;;;;;;4931592;52;21496;-32
2022/08/15 12:34:10;;;;;;;36.97;30.12;;;27.10;47.90;;;;;;4937739;52;21031;-33
2022/08/15 12:39:14;;;;;;;37.05;29.48;;;27.10;47.50;;;;;;4963805;52;21070;-29
2022/08/15 12:44:27;;;;;;;43.53;32.47;;;27.20;47.30;;;;;;4926088;52;20991;-35
2022/08/15 12:49:27;;;;;;;36.47;31.08;;;27.20;47.30;;;;;;4925044;52;20988;-38
2022/08/15 12:54:31;;;;;;;39.33;31.65;;;27.30;47.50;;;;;;4911155;52;21504;-31
2022/08/15 12:59:32;;;;;;;42.78;35.28;;;27.30;47.40;;;;;;4949179;52;20979;-27
2022/08/15 13:04:33;;;;;;;48.30;36.67;;;27.30;47.40;;;;;;4923519;52;20999;-29
2022/08/15 13:09:34;;;;;;;44.83;36.72;;;27.40;47.30;;;;;;4943941;52;21074;-30
2022/08/15 13:14:35;;;;;;;45.78;37.83;;;27.40;47.20;;;;;;4926460;52;21019;-31
2022/08/15 13:31:34;;;;;;;34.67;28.90;;;27.40;47.60;;;;;;4909497;56;21513;-27
2022/08/15 13:36:35;;;;;;;35.88;29.17;;;27.50;47.50;;;;;;4966608;52;21482;-30
2022/08/15 13:41:37;;;;;;;32.72;25.35;;;27.60;47.40;;;;;;4913785;52;20996;-36
2022/08/15 13:46:38;;;;;;;28.12;22.90;;;27.60;47.50;;;;;;4913482;52;21533;-38
2022/08/15 13:51:48;;;;;;;29.70;22.55;;;27.60;47.40;;;;;;4909737;56;21022;-37
2022/08/15 13:56:49;;;;;;;24.42;21.25;;;27.60;47.30;;;;;;4927081;52;21461;-36
2022/08/15 14:01:51;;;;;;;24.87;20.02;;;27.60;47.30;;;;;;4922668;52;20983;-37
2022/08/15 14:06:53;;;;;;;23.02;19.05;;;27.60;47.20;;;;;;4923137;52;20991;-35
2022/08/15 14:11:54;;;;;;;23.95;19.35;;;27.60;47.30;;;;;;4930142;52;21501;-32
2022/08/15 14:16:56;;;;;;;21.37;18.80;;;27.60;47.60;;;;;;4937306;52;21004;-34
2022/08/15 14:21:57;;;;;;;24.17;19.62;;;27.60;47.50;;;;;;4921730;52;21086;-35
2022/08/15 14:26:58;;;;;;;23.20;19.70;;;27.60;47.20;;;;;;4916307;52;21481;-36
2022/08/15 14:31:59;;;;;;;27.17;20.30;;;27.60;47.00;;;;;;4919888;52;21473;-38
2022/08/15 14:37:00;;;;;;;25.20;19.75;;;27.70;47.10;;;;;;4959565;52;20987;-32
2022/08/15 14:42:01;;;;;;;25.88;20.40;;;27.70;47.50;;;;;;4922718;52;20990;-39
2022/08/15 14:47:02;;;;;;;25.55;20.80;;;27.60;47.70;;;;;;4945653;52;21465;-29
2022/08/15 14:52:03;;;;;;;24.85;20.83;;;27.50;48.00;;;;;;4909888;52;21011;-31
2022/08/15 14:57:06;;;;;;;25.12;20.60;;;27.40;48.20;;;;;;4959859;52;20976;-27
2022/08/15 15:02:12;;;;;;;22.80;19.70;;;27.40;48.50;;;;;;4918939;52;21477;-28
2022/08/15 15:07:15;;;;;;;23.77;20.45;;;27.30;48.60;;;;;;4941290;52;21015;-34
2022/08/15 15:12:15;;;;;;;22.92;20.33;;;27.20;48.80;;;;;;4910220;56;20999;-27
2022/08/15 15:17:17;;;;;;;22.98;19.80;;;27.20;49.00;;;;;;4932249;52;21027;-32
2022/08/15 15:22:24;;;;;;;24.45;20.67;;;27.20;49.10;;;;;;4962480;52;21054;-27
2022/08/15 15:27:25;;;;;;;22.62;19.27;;;27.20;49.30;;;;;;4911009;56;20998;-32
2022/08/15 15:32:28;;;;;;;23.08;19.33;;;27.10;49.40;;;;;;4918095;52;20972;-28
2022/08/15 15:37:31;;;;;;;22.37;19.95;;;27.10;49.60;;;;;;4923358;52;21061;-32
2022/08/15 15:42:32;;;;;;;23.33;19.60;;;27.10;49.70;;;;;;4959564;52;21007;-30
2022/08/15 15:47:33;;;;;;;22.58;19.37;;;27.10;49.80;;;;;;4915213;52;20983;-26
2022/08/15 15:52:37;;;;;;;21.35;19.05;;;27.00;49.90;;;;;;5036606;52;21019;-31
2022/08/15 15:57:40;;;;;;;23.50;19.70;;;27.00;50.00;;;;;;4941427;52;21062;-30
2022/08/15 16:02:46;;;;;;;22.02;19.67;;;27.00;50.10;;;;;;4924380;52;21145;-37
2022/08/15 16:07:47;;;;;;;20.23;18.12;;;27.00;50.20;;;;;;4910240;56;21536;-31
2022/08/15 16:12:50;;;;;;;21.87;18.42;;;27.00;50.30;;;;;;4933646;52;21031;-32
2022/08/15 16:17:53;;;;;;;20.50;18.30;;;27.00;50.40;;;;;;4934154;52;21039;-31
2022/08/15 16:23:00;;;;;;;20.90;17.77;;;27.00;50.50;;;;;;4923186;52;21086;-34
2022/08/15 16:29:08;;;;;;;21.08;18.85;;;27.00;50.50;;;;;;4913487;52;21132;-27
2022/08/15 16:34:26;;;;;;;23.25;20.08;;;27.00;50.60;;;;;;4910154;56;20979;-27
2022/08/15 16:40:26;;;;;;;22.52;19.50;;;27.00;50.70;;;;;;4910109;52;21010;-27
2022/08/15 16:51:36;;;;;;;22.48;18.83;;;27.00;50.80;;;;;;4917261;52;21609;-30
2022/08/15 16:58:29;;;;;;;21.37;18.70;;;26.90;50.80;;;;;;4920536;52;21465;-34
2022/08/15 17:06:11;;;;;;;21.90;18.92;;;26.90;50.90;;;;;;4933634;52;21552;-30
2022/08/15 17:14:44;;;;;;;20.55;18.35;;;26.90;51.00;;;;;;4947677;52;21006;-30
2022/08/15 17:19:58;;;;;;;20.42;18.33;;;26.90;51.10;;;;;;4923279;52;21560;-31
2022/08/15 17:25:26;;;;;;;20.83;18.25;;;26.90;51.20;;;;;;4934863;52;21560;-31
2022/08/15 17:30:35;;;;;;;21.40;18.58;;;26.90;51.20;;;;;;4918393;52;21015;-30
2022/08/15 17:35:37;;;;;;;20.37;18.23;;;26.90;51.30;;;;;;4914279;52;21010;-28
2022/08/15 17:40:53;;;;;;;21.02;18.70;;;26.90;51.30;;;;;;4918154;52;21430;-36
2022/08/15 17:46:01;;;;;;;21.10;18.98;;;26.90;51.40;;;;;;4932215;52;20975;-38
2022/08/15 17:51:29;;;;;;;20.27;18.23;;;26.90;51.40;;;;;;4937772;52;21528;-31
2022/08/15 17:56:44;;;;;;;20.55;18.37;;;26.90;51.50;;;;;;4909769;53;21027;-31
2022/08/15 18:01:45;;;;;;;22.25;18.87;;;26.90;51.60;;;;;;4910517;52;20972;-37
2022/08/15 18:06:49;;;;;;;19.73;17.62;;;26.90;51.70;;;;;;4908843;56;21805;-27
2022/08/15 18:11:52;;;;;;;20.05;17.70;;;26.90;51.60;;;;;;4937825;52;21018;-29
2022/08/15 18:16:58;;;;;;;20.58;18.12;;;26.90;51.80;;;;;;4911766;52;21561;-26
2022/08/15 18:22:21;;;;;;;20.50;18.30;;;26.90;51.80;;;;;;4946833;52;20965;-35
2022/08/15 18:27:31;;;;;;;19.15;17.20;;;26.90;51.80;;;;;;4910689;56;21486;-29
2022/08/15 18:32:45;;;;;;;20.23;18.08;;;26.90;51.80;;;;;;4910373;56;21051;-28
2022/08/15 18:38:34;;;;;;;19.67;17.65;;;26.90;51.90;;;;;;4938288;52;20975;-28
2022/08/15 18:43:59;;;;;;;20.25;17.90;;;26.90;51.90;;;;;;4936687;52;20996;-34
2022/08/15 18:49:20;;;;;;;19.33;17.43;;;26.80;51.90;;;;;;4924214;52;21003;-39
2022/08/15 18:54:42;;;;;;;20.23;18.00;;;26.80;52.00;;;;;;4966804;52;21451;-38
2022/08/15 19:01:54;;;;;;;19.80;17.70;;;26.90;52.10;;;;;;4919512;52;20984;-28
2022/08/15 19:06:58;;;;;;;19.58;17.48;;;26.90;52.20;;;;;;4946391;52;21504;-35
2022/08/15 19:12:09;;;;;;;19.90;17.60;;;26.80;52.10;;;;;;4917672;52;20975;-34
2022/08/15 19:17:19;;;;;;;19.20;17.20;;;26.80;52.20;;;;;;4910619;52;21505;-28
2022/08/15 19:22:20;;;;;;;20.00;17.80;;;26.80;52.20;;;;;;4966672;52;21047;-27
2022/08/15 19:28:03;;;;;;;19.42;17.42;;;26.80;52.30;;;;;;4932070;52;21085;-31
2022/08/15 19:33:30;;;;;;;19.25;16.70;;;26.80;52.40;;;;;;4928202;52;21579;-29
2022/08/15 19:43:00;;;;;;;19.83;17.23;;;26.80;52.40;;;;;;4958766;52;21090;-35
2022/08/15 19:55:08;;;;;;;19.70;17.58;;;26.80;52.60;;;;;;4953141;52;20975;-27
2022/08/15 20:00:22;;;;;;;19.62;17.52;;;26.80;53.30;;;;;;4939822;52;21149;-31
2022/08/15 20:08:04;;;;;;;18.15;16.25;;;26.80;52.70;;;;;;4945168;52;21473;-35
2022/08/15 20:14:21;;;;;;;18.33;16.42;;;26.80;52.70;;;;;;4954457;52;21583;-32
2022/08/15 20:21:10;;;;;;;19.37;17.08;;;26.80;52.80;;;;;;4925893;52;21442;-33
2022/08/15 20:26:53;;;;;;;18.35;16.35;;;26.80;53.00;;;;;;4923867;52;21532;-28
2022/08/15 20:32:09;;;;;;;18.67;16.67;;;26.80;53.00;;;;;;4960463;52;21003;-27
2022/08/15 20:37:17;;;;;;;18.35;16.33;;;26.80;53.10;;;;;;4931683;52;21090;-27
2022/08/15 20:42:24;;;;;;;17.62;15.77;;;26.80;53.10;;;;;;4953072;52;21063;-36
2022/08/15 20:47:38;;;;;;;17.17;15.38;;;26.80;53.20;;;;;;4910509;56;20992;-28
2022/08/15 20:52:40;;;;;;;17.17;15.38;;;26.80;53.20;;;;;;4913871;52;21007;-30
2022/08/15 20:57:42;;;;;;;17.10;15.38;;;26.80;53.30;;;;;;4912389;52;21074;-29
2022/08/15 21:03:02;;;;;;;16.60;14.95;;;26.80;53.30;;;;;;4945064;52;21507;-29
2022/08/15 21:08:40;;;;;;;17.40;15.60;;;26.80;53.40;;;;;;4933035;52;21019;-31
2022/08/15 21:15:29;;;;;;;16.55;14.85;;;26.80;53.40;;;;;;4910734;52;21524;-28
2022/08/15 21:20:44;;;;;;;15.98;14.38;;;26.80;53.40;;;;;;4958659;52;21034;-26
2022/08/15 21:25:52;;;;;;;18.50;14.77;;;26.80;53.40;;;;;;4970202;52;21047;-35
2022/08/15 21:30:56;;;;;;;17.15;15.45;;;26.80;53.50;;;;;;4909983;56;21558;-33
2022/08/15 21:36:43;;;;;;;16.37;14.68;;;26.80;53.60;;;;;;4999193;52;21258;-34
2022/08/15 21:41:49;;;;;;;16.87;15.23;;;26.80;53.60;;;;;;4950823;52;21019;-31
2022/08/15 21:50:02;;;;;;;17.00;14.43;;;26.80;53.70;;;;;;4925023;52;21030;-34
2022/08/15 21:56:14;;;;;;;15.95;14.35;;;26.80;53.70;;;;;;4970784;52;21034;-36
2022/08/15 22:03:48;;;;;;;16.75;14.98;;;26.80;53.80;;;;;;4955731;52;20951;-34
2022/08/15 22:08:49;;;;;;;15.52;14.00;;;26.80;53.80;;;;;;4937167;52;21445;-29
2022/08/15 22:13:54;;;;;;;15.45;13.95;;;26.80;53.90;;;;;;4910101;56;21619;-32
2022/08/15 22:18:55;;;;;;;15.45;13.95;;;26.80;53.90;;;;;;4932610;52;20983;-37
2022/08/15 22:23:57;;;;;;;15.88;14.27;;;26.80;54.50;;;;;;4948054;52;20991;-36
2022/08/15 22:29:07;;;;;;;16.42;14.77;;;26.80;54.00;;;;;;4937110;52;21098;-35
2022/08/15 22:34:08;;;;;;;15.68;14.18;;;26.80;54.00;;;;;;4915534;52;21429;-35
2022/08/15 22:39:08;;;;;;;15.90;14.00;;;26.80;54.00;;;;;;4941949;52;20983;-33
2022/08/15 22:44:10;;;;;;;16.17;14.50;;;26.80;54.00;;;;;;4923110;52;21019;-25
2022/08/15 22:49:13;;;;;;;14.85;13.35;;;26.80;54.10;;;;;;4940050;52;20979;-28
2022/08/15 22:54:18;;;;;;;15.98;14.32;;;26.70;54.60;;;;;;4943878;52;20987;-30
2022/08/15 22:59:27;;;;;;;15.45;13.95;;;26.70;54.10;;;;;;4926168;52;20995;-30
2022/08/15 23:04:42;;;;;;;14.10;12.73;;;26.80;54.10;;;;;;4969677;52;20979;-25
2022/08/15 23:09:44;;;;;;;15.18;13.68;;;26.70;54.20;;;;;;4992625;52;20975;-26
2022/08/15 23:14:53;;;;;;;14.82;13.30;;;26.70;54.10;;;;;;4947622;52;21007;-30
2022/08/15 23:20:14;;;;;;;14.50;13.05;;;26.70;54.20;;;;;;4962657;52;21062;-31
2022/08/15 23:25:21;;;;;;;14.50;13.10;;;26.70;54.20;;;;;;4909285;56;20987;-32
2022/08/15 23:30:29;;;;;;;14.43;12.90;;;26.70;54.30;;;;;;4971319;52;20991;-29
2022/08/15 23:35:36;;;;;;;15.52;13.93;;;26.70;54.30;;;;;;4932201;52;21024;-30
2022/08/15 23:40:45;;;;;;;14.13;12.73;;;26.70;54.30;;;;;;4910667;56;21087;-38
2022/08/15 23:45:47;;;;;;;14.20;12.77;;;26.70;54.30;;;;;;4924457;52;20989;-28
2022/08/15 23:50:48;;;;;;;14.87;12.90;;;26.70;54.40;;;;;;4911115;52;20999;-31
2022/08/15 23:55:49;;;;;;;14.32;12.93;;;26.70;54.40;;;;;;4934468;52;20982;-32
